Time;durP1;ratioP1;P1;durP2;ratioP2;P2;SDS_P1;SDS_P2;PMS_P1;PMS_P2;Temp;Humidity;BMP_temperature;BMP_pressure;BME280_temperature;BME280_humidity;BME280_pressure;Samples;Min_cycle;Max_cycle;Signal;HPM_P1;HPM_P2
2022/05/21 00:02:07;;;;;;;7.95;2.60;;;;;;;13.91;69.78;100285.58;1749472;81;20967;-43
2022/05/21 00:04:41;;;;;;;4.55;2.37;;;;;;;13.88;69.92;100285.69;1715115;82;21023;-42
2022/05/21 00:07:04;;;;;;;6.47;2.60;;;;;;;13.81;69.96;100285.04;1734884;82;20913;-42
2022/05/21 00:09:31;;;;;;;7.97;2.40;;;;;;;13.74;70.43;100280.49;1735858;82;20993;-43
2022/05/21 00:11:57;;;;;;;4.85;2.50;;;;;;;13.69;70.32;100279.81;1735908;81;21202;-42
2022/05/21 00:14:25;;;;;;;9.38;2.42;;;;;;;13.65;70.31;100286.02;1735866;82;20980;-42
2022/05/21 00:16:51;;;;;;;8.73;2.20;;;;;;;13.61;70.26;100276.16;1735805;82;20964;-42
2022/05/21 00:19:18;;;;;;;5.12;2.40;;;;;;;13.59;70.29;100273.23;1735770;81;20897;-43
2022/05/21 00:21:45;;;;;;;4.47;2.65;;;;;;;13.57;70.52;100265.94;1735805;82;20885;-42
2022/05/21 00:24:11;;;;;;;7.42;2.77;;;;;;;13.50;71.07;100264.82;1736043;81;21048;-42
2022/05/21 00:26:39;;;;;;;9.75;2.45;;;;;;;13.43;71.17;100262.03;1735834;82;20957;-42
2022/05/21 00:29:05;;;;;;;5.05;2.85;;;;;;;13.36;71.83;100256.16;1736010;82;20957;-42
2022/05/21 00:31:32;;;;;;;8.93;2.47;;;;;;;13.31;72.77;100259.83;1736008;82;20945;-42
2022/05/21 00:33:59;;;;;;;5.90;2.42;;;;;;;13.21;73.14;100256.20;1735884;82;21427;-42
2022/05/21 00:36:26;;;;;;;2.85;2.50;;;;;;;13.13;73.04;100256.92;1735862;82;21068;-42
2022/05/21 00:38:53;;;;;;;8.23;2.42;;;;;;;13.05;73.43;100248.53;1736112;81;20854;-42
2022/05/21 00:41:20;;;;;;;8.73;2.60;;;;;;;12.97;73.54;100239.67;1735918;82;20925;-42
2022/05/21 00:43:58;;;;;;;8.20;2.70;;;;;;;12.88;74.79;100234.31;1735880;82;20945;-42
2022/05/21 00:46:38;;;;;;;8.95;2.70;;;;;;;12.75;76.05;100216.10;1735912;81;21035;-42
2022/05/21 00:49:22;;;;;;;4.90;2.62;;;;;;;12.61;77.05;100208.75;1735190;82;21708;-43
2022/05/21 00:52:12;;;;;;;6.50;2.50;;;;;;;12.48;78.31;100205.67;1735704;81;21530;-42
2022/05/21 00:54:45;;;;;;;3.80;2.50;;;;;;;12.39;78.65;100205.97;1735921;82;20992;-42
2022/05/21 00:57:27;;;;;;;8.28;2.52;;;;;;;12.28;79.17;100203.25;1735849;82;20945;-42
2022/05/21 01:00:03;;;;;;;3.75;2.80;;;;;;;12.21;79.92;100195.22;1735806;82;20956;-41
2022/05/21 01:02:37;;;;;;;6.78;2.95;;;;;;;12.11;81.03;100194.63;1735913;81;21259;-43
2022/05/21 01:05:09;;;;;;;8.63;2.60;;;;;;;12.02;81.21;100193.61;1735951;82;21023;-41
2022/05/21 01:07:38;;;;;;;7.62;2.80;;;;;;;11.99;81.50;100189.78;1739553;82;21424;-42
2022/05/21 01:10:08;;;;;;;3.85;2.58;;;;;;;11.96;81.83;100189.87;1735714;81;20862;-42
2022/05/21 01:12:38;;;;;;;6.10;2.67;;;;;;;11.91;81.95;100181.78;1735918;82;21538;-43
2022/05/21 01:15:10;;;;;;;4.42;2.55;;;;;;;11.86;81.84;100180.20;1735753;82;21208;-42
2022/05/21 01:17:36;;;;;;;6.87;2.60;;;;;;;11.80;82.00;100165.66;1714057;82;21644;-42
2022/05/21 01:20:08;;;;;;;11.97;3.15;;;;;;;11.77;82.72;100167.91;1735885;81;20992;-42
2022/05/21 01:22:51;;;;;;;5.35;2.70;;;;;;;11.71;82.91;100160.28;1735790;82;21035;-42
2022/05/21 01:25:22;;;;;;;9.23;2.30;;;;;;;11.66;83.10;100163.45;1735966;81;20894;-42
2022/05/21 01:27:50;;;;;;;7.58;2.62;;;;;;;11.65;83.44;100160.45;1735901;82;21140;-41
2022/05/21 01:30:23;;;;;;;7.20;2.58;;;;;;;11.63;83.58;100155.33;1735898;82;20984;-42
2022/05/21 01:32:50;;;;;;;6.85;2.33;;;;;;;11.64;84.19;100148.39;1735854;82;20980;-42
2022/05/21 01:35:18;;;;;;;12.10;2.60;;;;;;;11.64;84.48;100150.98;1735762;81;20933;-43
2022/05/21 01:37:46;;;;;;;10.35;2.95;;;;;;;11.66;83.90;100147.89;1735828;82;20968;-42
2022/05/21 01:40:15;;;;;;;8.68;2.40;;;;;;;11.69;83.60;100143.92;1736053;82;20928;-42
2022/05/21 01:42:42;;;;;;;7.90;2.77;;;;;;;11.74;83.43;100148.52;1735920;82;21538;-43
2022/05/21 01:45:10;;;;;;;7.65;2.67;;;;;;;11.81;82.51;100162.17;1735917;82;21381;-42
2022/05/21 01:47:41;;;;;;;6.58;1.87;;;;;;;11.86;81.79;100160.75;1739375;82;20941;-43
2022/05/21 01:50:08;;;;;;;6.22;2.00;;;;;;;11.95;80.85;100163.07;1735741;82;20920;-42
2022/05/21 01:52:35;;;;;;;6.47;2.30;;;;;;;12.04;80.21;100156.80;1735965;82;21863;-42
2022/05/21 01:55:03;;;;;;;2.58;2.10;;;;;;;12.11;79.50;100148.41;1735766;82;20894;-43
2022/05/21 01:57:29;;;;;;;5.95;2.10;;;;;;;12.21;78.91;100147.22;1735806;82;21052;-43
2022/05/21 01:59:58;;;;;;;7.22;2.22;;;;;;;12.26;78.50;100149.25;1735980;82;20968;-42
2022/05/21 02:02:25;;;;;;;9.40;1.90;;;;;;;12.30;77.90;100148.25;1735985;82;21458;-42
2022/05/21 02:04:52;;;;;;;5.78;2.12;;;;;;;12.33;77.65;100146.86;1735752;82;22026;-43
2022/05/21 02:07:19;;;;;;;5.85;2.02;;;;;;;12.35;77.47;100150.25;1735823;82;20961;-42
2022/05/21 02:09:47;;;;;;;7.10;2.33;;;;;;;12.35;77.15;100147.66;1735986;82;21011;-43
2022/05/21 02:12:16;;;;;;;7.47;2.52;;;;;;;12.38;76.67;100148.46;1736028;81;21511;-43
2022/05/21 02:14:43;;;;;;;3.58;1.98;;;;;;;12.41;76.46;100144.03;1736029;81;21471;-42
2022/05/21 02:17:10;;;;;;;6.35;1.92;;;;;;;12.44;76.22;100147.83;1736301;82;21151;-43
2022/05/21 02:19:37;;;;;;;6.00;2.02;;;;;;;12.53;75.87;100149.73;1735900;82;21027;-43
2022/05/21 02:22:04;;;;;;;8.93;2.27;;;;;;;12.56;75.63;100155.68;1736103;82;20943;-42
2022/05/21 02:24:31;;;;;;;7.33;2.52;;;;;;;12.61;75.24;100158.98;1736002;82;20961;-43
2022/05/21 02:26:58;;;;;;;3.60;2.05;;;;;;;12.64;74.92;100147.19;1735924;82;20878;-42
2022/05/21 02:29:25;;;;;;;5.75;2.45;;;;;;;12.70;74.11;100149.19;1735884;82;21124;-42
2022/05/21 02:31:51;;;;;;;6.78;2.08;;;;;;;12.78;73.63;100150.64;1735881;81;20937;-44
2022/05/21 02:34:19;;;;;;;15.55;2.22;;;;;;;12.92;72.95;100150.19;1736026;82;21065;-43
2022/05/21 02:39:32;;;;;;;4.53;1.65;;;;;;;13.12;71.64;100155.61;1735808;81;20929;-41
2022/05/21 02:41:59;;;;;;;6.50;2.10;;;;;;;13.20;71.21;100159.65;1735851;82;21443;-41
2022/05/21 02:44:27;;;;;;;6.83;3.02;;;;;;;13.25;70.97;100158.64;1736030;82;20854;-42
2022/05/21 02:46:54;;;;;;;10.10;2.30;;;;;;;13.30;70.85;100156.28;1736044;82;20893;-42
2022/05/21 02:49:21;;;;;;;9.93;2.35;;;;;;;13.35;70.19;100157.44;1735748;81;20988;-42
2022/05/21 02:51:48;;;;;;;11.33;2.35;;;;;;;13.39;70.04;100161.63;1735846;82;20921;-41
2022/05/21 02:54:15;;;;;;;6.30;2.00;;;;;;;13.41;69.80;100165.02;1735829;82;21113;-42
2022/05/21 02:56:45;;;;;;;5.75;1.77;;;;;;;13.52;69.71;100162.55;1735875;82;20976;-42
2022/05/21 02:59:12;;;;;;;2.72;1.98;;;;;;;13.57;69.04;100161.45;1734963;82;20944;-42
2022/05/21 03:01:41;;;;;;;9.10;2.20;;;;;;;13.64;68.91;100163.39;1735828;82;20999;-43
2022/05/21 03:04:08;;;;;;;4.87;2.30;;;;;;;13.68;69.04;100161.07;1742110;81;20972;-41
2022/05/21 03:06:36;;;;;;;7.42;2.00;;;;;;;13.75;68.91;100161.23;1749763;82;20983;-42
2022/05/21 03:11:49;;;;;;;6.50;1.95;;;;;;;13.93;67.46;100162.77;1749905;82;21005;-42
2022/05/21 03:14:16;;;;;;;11.28;2.30;;;;;;;14.00;66.43;100162.94;1749757;81;20936;-42
2022/05/21 03:16:43;;;;;;;4.20;1.75;;;;;;;14.08;66.33;100166.55;1749918;82;21019;-42
2022/05/21 03:19:10;;;;;;;5.10;2.08;;;;;;;14.17;66.18;100174.03;1749810;82;21033;-42
2022/05/21 03:21:37;;;;;;;5.30;1.75;;;;;;;14.27;65.57;100167.16;1749872;82;20920;-42
2022/05/21 03:24:05;;;;;;;3.47;2.10;;;;;;;14.37;64.61;100161.98;1749995;82;21506;-42
2022/05/21 03:26:33;;;;;;;5.90;2.00;;;;;;;14.50;64.54;100164.95;1749856;80;21027;-42
2022/05/21 03:29:00;;;;;;;6.72;1.92;;;;;;;14.60;63.29;100158.93;1749903;82;20913;-42
2022/05/21 03:31:27;;;;;;;11.12;2.40;;;;;;;14.72;63.39;100160.23;1749820;81;21043;-42
2022/05/21 03:33:55;;;;;;;3.05;1.87;;;;;;;14.84;62.48;100154.97;1722839;82;20900;-42
2022/05/21 03:36:21;;;;;;;6.03;1.72;;;;;;;14.91;62.84;100157.74;1749894;82;20913;-42
2022/05/21 03:38:49;;;;;;;9.23;2.05;;;;;;;14.98;63.30;100159.17;1749947;81;21514;-42
2022/05/21 03:41:16;;;;;;;9.28;2.02;;;;;;;15.02;62.83;100163.34;1749835;82;20984;-42
2022/05/21 03:43:44;;;;;;;13.32;2.00;;;;;;;15.10;62.28;100165.64;1749865;82;21113;-42
2022/05/21 03:46:11;;;;;;;4.08;2.12;;;;;;;15.20;62.62;100165.63;1749794;82;20940;-42
2022/05/21 03:48:38;;;;;;;6.95;1.70;;;;;;;15.30;62.21;100157.43;1749942;82;21304;-43
2022/05/21 03:51:05;;;;;;;11.53;2.55;;;;;;;15.38;62.03;100154.02;1749916;82;20917;-43
2022/05/21 03:53:32;;;;;;;3.85;1.75;;;;;;;15.47;61.83;100158.83;1749722;81;21395;-42
2022/05/21 03:55:58;;;;;;;7.80;2.02;;;;;;;15.60;61.40;100151.78;1749894;82;20975;-42
2022/05/21 03:58:25;;;;;;;4.42;2.05;;;;;;;15.72;61.70;100154.31;1749616;82;21509;-42
2022/05/21 04:00:52;;;;;;;10.78;2.60;;;;;;;15.87;61.41;100154.91;1749921;82;21475;-42
2022/05/21 04:03:19;;;;;;;3.00;1.72;;;;;;;15.99;60.61;100145.70;1749848;82;20861;-42
2022/05/21 04:05:47;;;;;;;3.77;2.05;;;;;;;16.14;59.40;100151.14;1738724;81;20937;-43
2022/05/21 04:08:18;;;;;;;6.53;2.22;;;;;;;16.31;59.53;100147.29;1736056;81;21098;-42
2022/05/21 04:10:46;;;;;;;7.70;2.02;;;;;;;16.50;58.75;100143.33;1738248;82;20894;-42
2022/05/21 04:13:12;;;;;;;9.58;2.17;;;;;;;16.69;58.03;100131.13;1718544;82;20968;-42
2022/05/21 04:15:40;;;;;;;4.20;1.85;;;;;;;16.92;58.19;100130.84;1714962;82;20878;-42
2022/05/21 04:19:39;;;;;;;3.30;2.12;;;;;;;17.44;57.95;100125.19;1798452;79;22649;-42
2022/05/21 04:22:08;;;;;;;6.75;2.35;;;;;;;17.67;55.97;100123.95;1758165;80;20913;-43
2022/05/21 04:24:36;;;;;;;10.25;2.33;;;;;;;17.89;55.26;100126.73;1757992;81;21116;-43
2022/05/21 04:27:04;;;;;;;6.30;2.30;;;;;;;18.04;54.01;100123.77;1758071;80;20979;-43
2022/05/21 04:29:31;;;;;;;7.78;2.27;;;;;;;18.19;54.01;100126.03;1757996;81;21542;-42
2022/05/21 04:31:57;;;;;;;5.17;2.35;;;;;;;18.31;53.75;100120.54;1758071;81;20994;-43
2022/05/21 04:34:24;;;;;;;6.65;1.98;;;;;;;18.52;53.36;100123.73;1758040;81;20892;-43
2022/05/21 04:36:51;;;;;;;6.12;2.12;;;;;;;18.75;53.79;100124.65;1758141;81;21129;-42
2022/05/21 04:39:17;;;;;;;5.95;2.15;;;;;;;18.97;53.47;100129.50;1758021;81;20953;-44
2022/05/21 04:41:45;;;;;;;3.83;1.90;;;;;;;19.12;53.15;100121.22;1758111;81;20975;-43
2022/05/21 04:44:12;;;;;;;3.95;2.27;;;;;;;19.31;52.59;100118.78;1742958;81;20997;-43
2022/05/21 04:46:39;;;;;;;7.78;2.12;;;;;;;19.46;51.87;100117.86;1752425;80;20845;-43
2022/05/21 04:49:06;;;;;;;14.25;2.40;;;;;;;19.61;51.43;100123.11;1749921;82;21940;-43
2022/05/21 04:51:36;;;;;;;7.95;2.33;;;;;;;19.70;51.30;100120.36;1749703;82;20885;-43
2022/05/21 04:54:03;;;;;;;6.75;1.92;;;;;;;19.76;50.76;100123.45;1749549;80;20941;-42
2022/05/21 04:56:31;;;;;;;12.88;2.40;;;;;;;19.82;50.30;100115.19;1749512;82;20964;-42
2022/05/21 04:58:59;;;;;;;9.10;2.20;;;;;;;19.94;50.95;100107.52;1749632;82;21003;-43
2022/05/21 05:01:26;;;;;;;12.73;2.40;;;;;;;20.14;51.19;100107.56;1749800;82;21147;-43
2022/05/21 05:03:53;;;;;;;16.70;3.70;;;;;;;20.36;50.78;100100.92;1749633;81;20873;-42
2022/05/21 05:06:20;;;;;;;18.30;2.60;;;;;;;20.51;49.73;100105.64;1749660;82;21030;-43
2022/05/21 05:08:47;;;;;;;11.55;2.27;;;;;;;20.57;50.16;100096.02;1749650;82;20909;-44
2022/05/21 05:11:16;;;;;;;4.67;2.10;;;;;;;20.72;49.56;100099.45;1749708;82;20925;-43
2022/05/21 05:13:42;;;;;;;8.43;2.77;;;;;;;20.87;49.25;100101.55;1749812;81;21375;-44
2022/05/21 05:16:09;;;;;;;6.67;2.22;;;;;;;21.04;49.72;100104.80;1749585;82;21027;-42
2022/05/21 05:18:35;;;;;;;25.68;3.02;;;;;;;21.16;48.17;100106.61;1743504;82;21485;-43
2022/05/21 05:21:02;;;;;;;15.68;2.40;;;;;;;21.23;49.06;100106.55;1736530;82;20968;-43
2022/05/21 05:23:29;;;;;;;22.35;2.60;;;;;;;21.34;49.42;100111.53;1736526;81;21617;-43
2022/05/21 05:25:59;;;;;;;7.65;2.08;;;;;;;21.41;48.58;100098.33;1736547;82;21138;-43
2022/05/21 05:28:25;;;;;;;6.15;2.02;;;;;;;21.46;48.10;100101.48;1736453;81;20996;-43
2022/05/21 05:30:52;;;;;;;29.35;3.90;;;;;;;21.62;48.17;100107.83;1735907;82;21005;-41
2022/05/21 05:33:21;;;;;;;13.65;1.98;;;;;;;21.85;48.41;100106.70;1735912;82;20905;-43
2022/05/21 05:35:52;;;;;;;48.58;4.72;;;;;;;21.97;47.33;100107.61;1736060;82;20917;-43
2022/05/21 05:38:20;;;;;;;7.87;2.30;;;;;;;22.01;47.27;100098.53;1736034;82;21101;-44
2022/05/21 05:40:49;;;;;;;32.33;3.85;;;;;;;22.18;46.73;100089.88;1735999;82;20849;-43
2022/05/21 05:43:16;;;;;;;25.95;3.60;;;;;;;22.26;46.49;100091.47;1735849;81;20984;-44
2022/05/21 05:45:43;;;;;;;7.90;2.33;;;;;;;22.34;46.87;100090.91;1735917;82;20928;-44
2022/05/21 05:48:11;;;;;;;10.85;2.85;;;;;;;22.34;45.18;100090.41;1735977;82;20889;-42
2022/05/21 05:50:38;;;;;;;5.83;2.17;;;;;;;22.29;44.51;100085.97;1735919;81;21249;-42
2022/05/21 05:53:06;;;;;;;10.05;2.17;;;;;;;22.19;45.34;100089.75;1735864;81;20960;-43
2022/05/21 05:55:35;;;;;;;5.60;2.00;;;;;;;22.16;45.66;100079.44;1735916;81;21522;-43
2022/05/21 05:59:48;;;;;;;4.78;2.10;;;;;;;22.20;45.71;100076.11;1735960;82;21531;-43
2022/05/21 06:00:33;;;;;;;14.03;2.55;;;;;;;22.21;45.27;100080.42;1714589;82;20944;-43
2022/05/21 06:03:05;;;;;;;9.28;2.10;;;;;;;22.18;44.99;100068.30;1736026;82;21146;-43
2022/05/21 06:05:31;;;;;;;5.97;2.55;;;;;;;22.19;45.69;100065.20;1734979;82;20988;-43
2022/05/21 06:08:01;;;;;;;8.58;2.30;;;;;;;22.14;45.05;100056.80;1735778;82;21480;-43
2022/05/21 06:10:39;;;;;;;5.47;2.02;;;;;;;21.98;45.43;100056.59;1735758;81;20973;-43
2022/05/21 06:13:07;;;;;;;6.00;1.95;;;;;;;22.05;46.13;100057.82;1735991;82;20992;-44
2022/05/21 06:15:35;;;;;;;4.30;2.10;;;;;;;22.12;46.41;100068.77;1735961;82;21136;-43
2022/05/21 06:18:14;;;;;;;7.12;2.05;;;;;;;22.20;46.28;100067.71;1735642;81;20945;-43
2022/05/21 06:20:42;;;;;;;9.08;2.55;;;;;;;22.08;45.94;100060.23;1735866;82;20976;-43
2022/05/21 06:23:08;;;;;;;10.63;2.55;;;;;;;22.13;46.91;100061.71;1735981;82;20941;-43
2022/05/21 06:25:36;;;;;;;7.03;2.15;;;;;;;22.24;46.81;100056.48;1735883;82;20953;-43
2022/05/21 06:28:04;;;;;;;7.80;2.35;;;;;;;22.44;46.22;100052.34;1736005;81;21020;-43
2022/05/21 06:30:34;;;;;;;1.95;1.70;;;;;;;22.49;45.60;100049.41;1735806;82;20937;-43
2022/05/21 06:33:21;;;;;;;6.83;2.15;;;;;;;22.52;46.67;100041.26;1735951;82;20912;-43
2022/05/21 06:36:03;;;;;;;7.35;2.77;;;;;;;22.62;45.76;100040.95;1735816;82;21032;-42
2022/05/21 06:38:30;;;;;;;7.45;2.10;;;;;;;22.54;45.71;100026.16;1735888;82;21043;-43
2022/05/21 06:40:57;;;;;;;7.78;2.12;;;;;;;22.58;45.23;100026.28;1735673;82;21290;-43
2022/05/21 06:43:24;;;;;;;10.10;2.35;;;;;;;22.55;45.97;100027.02;1735828;82;21506;-43
2022/05/21 06:45:52;;;;;;;8.45;2.02;;;;;;;22.65;46.31;100023.56;1735914;82;20909;-44
2022/05/21 06:48:18;;;;;;;7.90;2.45;;;;;;;22.88;45.02;100012.19;1735767;82;20937;-43
2022/05/21 06:50:46;;;;;;;9.73;2.00;;;;;;;22.93;45.57;100012.20;1735806;82;20914;-43
2022/05/21 06:53:14;;;;;;;4.30;2.27;;;;;;;23.11;45.80;100003.78;1735959;82;21249;-43
2022/05/21 06:55:41;;;;;;;6.92;2.47;;;;;;;23.45;46.11;99994.55;1735773;82;20999;-44
2022/05/21 06:58:07;;;;;;;5.85;2.15;;;;;;;23.75;44.18;99986.92;1735870;82;20969;-43
2022/05/21 07:00:35;;;;;;;10.48;2.47;;;;;;;23.88;44.55;99983.62;1735677;81;20953;-44
2022/05/21 07:03:02;;;;;;;3.92;2.50;;;;;;;24.06;44.02;99977.81;1736010;82;20981;-44
2022/05/21 07:08:21;;;;;;;15.18;2.62;;;;;;;24.24;42.69;99980.22;1736097;82;21526;-43
2022/05/21 07:10:49;;;;;;;15.28;2.70;;;;;;;24.27;43.06;99979.14;1735978;82;21027;-44
2022/05/21 07:13:16;;;;;;;10.68;2.40;;;;;;;24.30;43.53;99980.20;1735918;82;20937;-45
2022/05/21 07:15:44;;;;;;;5.03;2.47;;;;;;;24.51;43.02;99982.00;1735736;82;21596;-43
2022/05/21 07:18:12;;;;;;;6.45;2.25;;;;;;;24.67;43.07;99981.06;1735787;82;21879;-43
2022/05/21 07:20:39;;;;;;;12.63;2.72;;;;;;;24.83;43.12;99981.08;1735894;82;20929;-44
2022/05/21 07:23:05;;;;;;;13.70;2.55;;;;;;;24.86;42.69;99978.16;1735840;82;20890;-44
2022/05/21 07:25:33;;;;;;;6.37;2.47;;;;;;;24.90;42.95;99980.06;1735768;81;21517;-43
2022/05/21 07:28:00;;;;;;;6.80;2.08;;;;;;;24.99;43.12;99975.78;1735818;82;20981;-44
2022/05/21 07:30:27;;;;;;;10.90;2.62;;;;;;;25.19;43.37;99970.91;1735848;82;21147;-43
2022/05/21 07:32:55;;;;;;;7.95;1.90;;;;;;;25.39;43.26;99972.28;1735787;82;20976;-44
2022/05/21 07:35:23;;;;;;;9.55;2.67;;;;;;;25.60;42.87;99958.09;1735821;82;21046;-43
2022/05/21 07:37:51;;;;;;;10.48;2.40;;;;;;;25.79;43.84;99958.62;1735871;82;20905;-44
2022/05/21 07:40:19;;;;;;;9.90;2.05;;;;;;;25.91;42.19;99957.99;1736038;82;21486;-44
2022/05/21 07:42:47;;;;;;;3.95;2.42;;;;;;;25.87;42.16;99953.92;1735918;82;21124;-43
2022/05/21 07:45:16;;;;;;;8.28;2.30;;;;;;;25.73;42.10;99956.03;1735731;82;20921;-43
2022/05/21 07:47:43;;;;;;;21.40;2.50;;;;;;;25.60;42.04;99952.33;1735792;82;21005;-43
2022/05/21 07:50:12;;;;;;;20.35;2.80;;;;;;;25.44;42.36;99950.19;1735805;82;21031;-44
2022/05/21 07:52:39;;;;;;;5.28;1.95;;;;;;;25.38;43.02;99948.07;1735822;82;20870;-44
2022/05/21 07:55:07;;;;;;;7.72;2.00;;;;;;;25.46;43.02;99958.84;1735914;81;21191;-43
2022/05/21 07:57:34;;;;;;;5.65;2.05;;;;;;;25.46;42.25;99951.36;1735859;81;21470;-44
2022/05/21 08:00:01;;;;;;;5.72;2.20;;;;;;;25.43;42.16;99952.97;1735789;82;21053;-44
2022/05/21 08:02:30;;;;;;;4.60;1.98;;;;;;;25.45;43.30;99949.22;1733949;82;20862;-44
2022/05/21 08:04:57;;;;;;;11.95;2.37;;;;;;;25.72;42.61;99952.18;1735836;82;20890;-44
2022/05/21 08:07:23;;;;;;;10.88;2.35;;;;;;;25.99;41.16;99948.84;1715034;82;21132;-44
2022/05/21 08:09:52;;;;;;;9.83;2.15;;;;;;;26.07;41.30;99939.67;1735696;81;20984;-44
2022/05/21 08:12:20;;;;;;;7.87;2.40;;;;;;;26.10;41.67;99937.24;1735723;82;20945;-44
2022/05/21 08:14:47;;;;;;;9.33;2.67;;;;;;;26.23;41.85;99937.80;1735889;82;21443;-44
2022/05/21 08:17:14;;;;;;;5.37;2.65;;;;;;;26.36;42.15;99936.66;1735922;81;20885;-44
2022/05/21 08:19:41;;;;;;;4.80;2.35;;;;;;;26.37;41.69;99933.84;1742581;81;21089;-44
2022/05/21 08:27:41;;;;;;;7.55;2.15;;;;;;;26.38;42.58;99938.68;1749863;82;20976;-44
2022/05/21 08:30:09;;;;;;;4.95;2.12;;;;;;;26.41;41.93;99930.94;1749896;82;20897;-44
2022/05/21 08:32:36;;;;;;;16.23;2.42;;;;;;;26.50;42.34;99941.99;1749599;82;21135;-44
2022/05/21 08:35:03;;;;;;;4.92;2.12;;;;;;;26.55;42.34;99937.08;1749785;82;21041;-44
2022/05/21 08:37:30;;;;;;;9.10;2.30;;;;;;;26.55;41.84;99942.39;1738828;82;21490;-44
2022/05/21 08:39:57;;;;;;;5.75;2.10;;;;;;;26.46;41.99;99940.11;1749572;80;20971;-44
2022/05/21 08:42:35;;;;;;;6.78;2.12;;;;;;;26.41;42.23;99937.56;1749955;82;21529;-44
2022/05/21 08:45:20;;;;;;;9.13;2.10;;;;;;;26.37;42.15;99940.48;1749817;82;21255;-45
2022/05/21 08:47:58;;;;;;;9.00;2.40;;;;;;;26.46;42.63;99939.29;1749812;82;20976;-43
2022/05/21 08:50:27;;;;;;;6.47;2.00;;;;;;;26.64;41.91;99938.85;1749031;82;20897;-42
2022/05/21 08:53:09;;;;;;;5.15;1.70;;;;;;;26.74;40.63;99941.98;1749796;82;20937;-42
2022/05/21 08:55:42;;;;;;;13.53;2.15;;;;;;;26.62;42.29;99937.34;1749921;82;20921;-43
2022/05/21 08:58:40;;;;;;;11.88;2.10;;;;;;;26.71;42.78;99936.97;1750079;82;21233;-43
2022/05/21 09:01:10;;;;;;;5.50;2.67;;;;;;;26.66;41.07;99924.13;1749840;82;21017;-44
2022/05/21 09:03:37;;;;;;;7.40;2.02;;;;;;;26.45;42.30;99929.66;1749896;81;20991;-44
2022/05/21 09:06:21;;;;;;;7.00;2.30;;;;;;;26.45;42.37;99922.52;1749894;82;21407;-44
2022/05/21 09:09:14;;;;;;;;;;;;;;;26.39;43.06;99922.60;1752593;80;20877;-44
2022/05/21 09:11:48;;;;;;;4.30;2.20;;;;;;;26.55;42.31;99918.51;1749982;82;21148;-45
2022/05/21 09:14:43;;;;;;;5.00;2.00;;;;;;;26.59;41.98;99915.09;1749889;82;21035;-44
2022/05/21 09:17:12;;;;;;;10.43;2.10;;;;;;;26.50;42.05;99920.27;1749940;82;21371;-45
2022/05/21 09:19:55;;;;;;;6.42;1.90;;;;;;;26.46;43.36;99915.41;1749779;81;20948;-45
2022/05/21 09:22:22;;;;;;;3.40;1.70;;;;;;;26.56;42.70;99913.55;1749997;82;20979;-45
2022/05/21 09:24:53;;;;;;;15.40;2.98;;;;;;;26.67;42.58;99913.86;1750067;81;21387;-44
2022/05/21 09:27:36;;;;;;;11.60;2.33;;;;;;;26.58;42.30;99901.48;1749852;82;20963;-45
2022/05/21 09:30:24;;;;;;;2.98;1.85;;;;;;;26.65;43.27;99902.55;1749936;82;20901;-45
2022/05/21 09:32:56;;;;;;;18.80;2.55;;;;;;;26.86;42.46;99893.55;1749793;81;21518;-45
2022/05/21 09:35:32;;;;;;;10.43;2.10;;;;;;;26.98;41.74;99896.84;1749944;81;21031;-44
2022/05/21 09:38:13;;;;;;;4.03;2.10;;;;;;;27.08;41.94;99882.52;1749924;82;21350;-44
2022/05/21 09:40:41;;;;;;;8.15;2.08;;;;;;;27.17;41.07;99882.59;1746591;82;21428;-44
2022/05/21 09:46:30;;;;;;;10.10;2.05;;;;;;;27.03;40.13;99868.02;1749938;82;21003;-45
2022/05/21 09:49:22;;;;;;;4.95;2.10;;;;;;;26.80;40.80;99873.23;1749846;82;21066;-45
2022/05/21 09:52:04;;;;;;;8.85;2.25;;;;;;;26.81;41.39;99872.23;1749893;81;21374;-45
2022/05/21 09:54:41;;;;;;;3.47;2.17;;;;;;;26.82;39.73;99868.60;1739327;82;20971;-45
2022/05/21 09:57:30;;;;;;;11.55;1.90;;;;;;;26.66;39.75;99861.77;1749724;82;21019;-45
2022/05/21 10:00:08;;;;;;;7.53;1.87;;;;;;;26.57;40.37;99871.44;1749791;81;20932;-44
2022/05/21 10:02:45;;;;;;;4.58;2.00;;;;;;;26.44;40.07;99865.14;1750184;82;20932;-45
2022/05/21 10:05:16;;;;;;;7.33;2.08;;;;;;;26.34;41.31;99861.70;1749868;82;21022;-44
2022/05/21 10:10:59;;;;;;;21.68;2.75;;;;;;;26.47;41.29;99866.68;1749842;81;20960;-45
2022/05/21 10:13:47;;;;;;;11.20;2.45;;;;;;;26.48;41.30;99855.09;1724918;82;21451;-44
2022/05/21 10:16:28;;;;;;;5.60;1.87;;;;;;;26.58;42.07;99850.55;1750010;82;20983;-45
2022/05/21 10:19:12;;;;;;;4.78;2.15;;;;;;;26.64;41.49;99853.94;1749905;82;21155;-43
2022/05/21 10:22:05;;;;;;;23.65;2.65;;;;;;;26.66;42.04;99852.00;1749899;82;20976;-43
2022/05/21 10:24:56;;;;;;;35.17;3.10;;;;;;;26.68;42.23;99846.05;1749957;82;20933;-43
2022/05/21 10:27:57;;;;;;;7.47;1.90;;;;;;;26.67;40.42;99839.55;1749944;80;21035;-43
2022/05/21 10:30:38;;;;;;;19.05;2.72;;;;;;;26.59;40.11;99836.81;1749919;82;20963;-42
2022/05/21 10:33:26;;;;;;;7.65;1.87;;;;;;;26.58;40.41;99840.45;1749892;81;21501;-43
2022/05/21 10:36:19;;;;;;;39.10;4.67;;;;;;;26.66;40.29;99830.77;1749781;82;20932;-43
2022/05/21 10:38:51;;;;;;;5.72;2.00;;;;;;;26.79;40.11;99830.41;1749888;82;21038;-44
2022/05/21 10:41:41;;;;;;;10.10;2.30;;;;;;;27.09;39.61;99820.94;1749836;81;20980;-43
2022/05/21 10:44:34;;;;;;;38.60;4.05;;;;;;;27.42;39.43;99822.57;1749957;82;20905;-44
2022/05/21 10:47:07;;;;;;;5.55;2.00;;;;;;;27.58;39.41;99815.73;1749892;82;20941;-44
2022/05/21 10:50:22;;;;;;;24.80;3.52;;;;;;;27.76;38.08;99811.22;1749783;81;20967;-44
2022/05/21 10:53:14;;;;;;;12.37;2.40;;;;;;;27.92;37.42;99805.16;1750255;82;21084;-44
2022/05/21 10:56:23;;;;;;;14.18;2.37;;;;;;;27.81;37.41;99810.24;1749503;82;20912;-44
2022/05/21 10:59:13;;;;;;;7.70;1.98;;;;;;;27.60;37.53;99806.62;1742421;82;20987;-44
2022/05/21 11:01:51;;;;;;;2.83;1.82;;;;;;;27.30;38.44;99794.56;1742989;82;21212;-45
2022/05/21 11:04:56;;;;;;;5.28;2.10;;;;;;;27.25;39.47;99797.67;1749876;82;21286;-44
2022/05/21 11:08:11;;;;;;;13.08;1.77;;;;;;;27.29;39.46;99790.23;1750101;81;21553;-43
2022/05/21 11:10:57;;;;;;;5.95;1.82;;;;;;;27.44;38.46;99783.40;1749883;82;20861;-44
2022/05/21 11:13:58;;;;;;;10.55;2.25;;;;;;;27.58;40.05;99775.39;1749699;82;20904;-44
2022/05/21 11:16:29;;;;;;;4.58;1.98;;;;;;;27.71;38.47;99763.02;1750018;81;21123;-44
2022/05/21 11:19:00;;;;;;;2.60;1.70;;;;;;;27.83;38.78;99759.08;1749796;81;21015;-44
2022/05/21 11:21:55;;;;;;;7.45;1.92;;;;;;;27.94;38.03;99751.33;1738608;81;20916;-44
2022/05/21 11:24:50;;;;;;;8.73;2.12;;;;;;;27.82;37.89;99742.80;1735566;82;20945;-44
2022/05/21 11:27:27;;;;;;;24.10;3.12;;;;;;;27.61;37.29;99741.86;1735933;82;21448;-44
2022/05/21 11:30:05;;;;;;;7.05;2.00;;;;;;;27.35;37.76;99734.69;1735899;82;21222;-44
2022/05/21 11:38:49;;;;;;;7.33;2.17;;;;;;;27.11;38.23;99720.70;1735983;82;21175;-43
2022/05/21 11:41:27;;;;;;;13.13;2.55;;;;;;;27.29;39.49;99727.34;1736024;82;21400;-44
2022/05/21 11:47:09;;;;;;;10.13;2.00;;;;;;;27.30;39.72;99719.71;1735690;81;20976;-44
2022/05/21 11:49:46;;;;;;;8.75;2.30;;;;;;;27.52;36.97;99713.55;1736047;81;20966;-43
2022/05/21 11:52:41;;;;;;;13.38;1.87;;;;;;;27.66;37.59;99708.14;1736014;82;21001;-43
2022/05/21 11:55:21;;;;;;;5.80;1.72;;;;;;;27.82;36.67;99704.25;1736226;82;21380;-43
2022/05/21 11:58:01;;;;;;;3.65;2.00;;;;;;;27.52;36.78;99696.27;1714949;82;21718;-44
2022/05/21 12:00:33;;;;;;;12.45;1.70;;;;;;;27.23;37.60;99693.41;1735700;82;20970;-43
2022/05/21 12:03:10;;;;;;;16.57;2.20;;;;;;;26.96;39.15;99692.55;1735956;82;20957;-43
2022/05/21 12:05:48;;;;;;;4.67;1.87;;;;;;;26.78;39.12;99690.73;1735974;82;21460;-43
2022/05/21 12:08:36;;;;;;;8.00;1.85;;;;;;;26.70;39.04;99676.05;1735814;82;20909;-44
2022/05/21 12:11:39;;;;;;;6.28;1.70;;;;;;;26.74;39.10;99668.63;1735915;82;21340;-43
2022/05/21 12:14:25;;;;;;;5.75;2.10;;;;;;;26.83;39.12;99674.33;1735466;82;21048;-43
2022/05/21 12:16:59;;;;;;;4.62;2.00;;;;;;;27.01;38.59;99668.20;1736035;81;21063;-43
2022/05/21 12:19:46;;;;;;;4.08;1.98;;;;;;;27.09;38.26;99661.61;1735722;82;20925;-43
2022/05/21 12:22:36;;;;;;;57.03;3.90;;;;;;;27.18;39.19;99656.72;1752212;81;20979;-43